createdAt,value
2022-09-18T00:01:33.790Z,457.67
2022-09-18T00:04:06.908Z,439.50
2022-09-18T00:06:38.440Z,440.73
2022-09-18T00:09:09.015Z,449.75
2022-09-18T00:11:43.248Z,448.90
2022-09-18T00:14:13.204Z,446.25
2022-09-18T00:16:41.175Z,447.98
2022-09-18T00:19:09.509Z,445.50
2022-09-18T00:21:40.085Z,448.73
2022-09-18T00:24:07.652Z,441.83
2022-09-18T00:26:35.787Z,452.45
2022-09-18T00:29:04.380Z,449.73
2022-09-18T00:31:35.167Z,445.23
2022-09-18T00:34:05.897Z,446.05
2022-09-18T00:36:34.267Z,436.90
2022-09-18T00:39:02.938Z,438.58
2022-09-18T00:41:33.044Z,487.17
2022-09-18T00:44:28.463Z,488.85
2022-09-18T00:47:04.189Z,486.15
2022-09-18T00:49:32.291Z,489.83
2022-09-18T00:52:01.916Z,488.17
2022-09-18T00:54:36.819Z,489.45
2022-09-18T00:57:09.302Z,488.20
2022-09-18T00:59:37.973Z,490.47
2022-09-18T01:02:05.529Z,485.08
2022-09-18T01:04:33.580Z,487.70
2022-09-18T01:07:37.847Z,483.98
2022-09-18T01:11:02.614Z,483.10
2022-09-18T01:13:51.712Z,473.48
2022-09-18T01:16:25.411Z,443.85
2022-09-18T01:19:26.107Z,297.33
2022-09-18T01:22:25.943Z,442.15
2022-09-18T01:25:20.048Z,446.50
2022-09-18T01:30:15.257Z,429.45
2022-09-18T01:32:57.698Z,440.33
2022-09-18T01:35:42.003Z,441.27
2022-09-18T01:38:28.183Z,458.33
2022-09-18T01:41:12.330Z,453.77
2022-09-18T01:43:41.011Z,486.48
2022-09-18T01:46:13.614Z,497.08
2022-09-18T01:49:09.499Z,492.27
2022-09-18T01:52:10.161Z,469.00
2022-09-18T01:54:43.883Z,473.90
2022-09-18T01:57:39.685Z,476.55
2022-09-18T02:00:12.604Z,480.48
2022-09-18T02:02:58.494Z,470.13
2022-09-18T02:05:38.015Z,306.13
2022-09-18T02:08:08.262Z,459.10
2022-09-18T02:10:43.083Z,484.73
2022-09-18T02:13:15.177Z,461.85
2022-09-18T02:15:48.018Z,475.50
2022-09-18T02:18:27.045Z,479.92
2022-09-18T02:20:56.731Z,447.02
2022-09-18T02:23:25.878Z,460.67
2022-09-18T02:26:01.889Z,451.88
2022-09-18T02:28:32.097Z,456.15
2022-09-18T02:31:01.038Z,459.65
2022-09-18T02:33:30.476Z,457.80
2022-09-18T02:36:26.528Z,453.00
2022-09-18T02:39:03.589Z,460.38
2022-09-18T02:42:14.276Z,463.83
2022-09-18T02:45:02.663Z,469.88
2022-09-18T02:47:51.867Z,469.27
2022-09-18T02:50:38.302Z,476.17
2022-09-18T02:53:27.263Z,469.45
2022-09-18T02:56:05.302Z,472.70
2022-09-18T02:58:45.074Z,485.80
2022-09-18T03:01:14.128Z,483.48
2022-09-18T03:03:42.353Z,487.23
2022-09-18T03:06:12.084Z,480.83
2022-09-18T03:08:40.006Z,479.88
2022-09-18T03:11:07.369Z,483.05
2022-09-18T03:13:35.343Z,483.70
2022-09-18T03:16:04.150Z,485.95
2022-09-18T03:18:31.551Z,483.95
2022-09-18T03:20:59.991Z,470.88
2022-09-18T03:23:27.376Z,476.00
2022-09-18T03:26:04.576Z,466.25
2022-09-18T03:28:34.085Z,471.35
2022-09-18T03:31:01.728Z,469.00
2022-09-18T03:33:31.178Z,464.45
2022-09-18T03:35:58.726Z,475.80
2022-09-18T03:38:27.146Z,463.08
2022-09-18T03:40:55.651Z,455.42
2022-09-18T03:43:23.178Z,461.67
2022-09-18T03:45:50.876Z,476.95
2022-09-18T03:48:19.285Z,473.92
2022-09-18T03:50:50.149Z,473.85
2022-09-18T03:53:18.134Z,463.50
2022-09-18T03:55:52.967Z,456.08
2022-09-18T03:58:38.642Z,468.27
2022-09-18T04:01:21.293Z,442.55
2022-09-18T04:04:09.055Z,446.60
2022-09-18T04:06:48.856Z,443.02
2022-09-18T04:09:36.542Z,439.73
2022-09-18T04:12:04.013Z,462.33
2022-09-18T04:14:31.400Z,438.42
2022-09-18T04:17:00.508Z,444.58
2022-09-18T04:19:28.259Z,442.25
2022-09-18T04:21:57.339Z,444.20
2022-09-18T04:24:24.766Z,438.48
2022-09-18T04:26:52.105Z,445.27
2022-09-18T04:29:22.176Z,452.08
2022-09-18T04:31:51.961Z,437.58
2022-09-18T04:34:21.769Z,442.67
2022-09-18T04:36:49.175Z,437.85
2022-09-18T04:39:16.723Z,446.23
2022-09-18T04:41:46.140Z,444.75
2022-09-18T04:44:14.729Z,437.17
2022-09-18T04:46:43.595Z,436.13
2022-09-18T04:49:11.413Z,436.27
2022-09-18T04:51:39.242Z,443.75
2022-09-18T04:54:06.647Z,446.48
2022-09-18T04:56:37.679Z,301.50
2022-09-18T04:59:05.113Z,439.38
2022-09-18T05:01:35.103Z,433.55
2022-09-18T05:04:08.987Z,433.88
2022-09-18T05:06:59.510Z,446.80
2022-09-18T05:09:27.032Z,431.52
2022-09-18T05:11:55.358Z,434.85
2022-09-18T05:14:24.445Z,433.85
2022-09-18T05:16:56.654Z,437.15
2022-09-18T05:19:44.246Z,433.30
2022-09-18T05:22:21.709Z,437.45
2022-09-18T05:24:51.635Z,427.10
2022-09-18T05:27:20.631Z,441.20
2022-09-18T05:29:50.867Z,434.50
2022-09-18T05:32:22.485Z,436.52
2022-09-18T05:34:51.594Z,467.02
2022-09-18T05:37:19.334Z,485.38
2022-09-18T05:39:51.400Z,495.10
2022-09-18T05:42:18.879Z,511.92
2022-09-18T05:44:46.626Z,526.85
2022-09-18T05:47:19.311Z,532.10
2022-09-18T05:49:46.763Z,533.85
2022-09-18T05:52:14.115Z,525.72
2022-09-18T05:54:41.820Z,527.45
2022-09-18T05:57:10.182Z,520.42
2022-09-18T05:59:37.558Z,520.97
2022-09-18T06:02:06.310Z,521.25
2022-09-18T06:04:53.981Z,522.30
2022-09-18T06:07:21.388Z,516.97
2022-09-18T06:09:48.771Z,518.25
2022-09-18T06:12:16.161Z,516.10
2022-09-18T06:14:44.229Z,512.42
2022-09-18T06:17:11.563Z,510.38
2022-09-18T06:19:38.885Z,507.08
2022-09-18T06:22:06.284Z,511.05
2022-09-18T06:24:34.794Z,510.95
2022-09-18T06:27:07.426Z,506.17
2022-09-18T06:29:35.179Z,502.05
2022-09-18T06:32:09.337Z,502.25
2022-09-18T06:34:38.924Z,509.65
2022-09-18T06:37:12.378Z,505.30
2022-09-18T06:40:07.939Z,503.38
2022-09-18T06:42:57.980Z,500.40
2022-09-18T06:45:44.336Z,499.80
2022-09-18T06:48:11.748Z,492.70
2022-09-18T06:50:39.260Z,492.63
2022-09-18T06:53:12.427Z,488.00
2022-09-18T06:55:51.126Z,487.85
2022-09-18T06:58:21.654Z,489.30
2022-09-18T07:00:52.474Z,496.60
2022-09-18T07:03:28.438Z,496.15
2022-09-18T07:06:13.616Z,484.27
2022-09-18T07:08:47.506Z,492.50
2022-09-18T07:11:26.423Z,487.85
2022-09-18T07:13:54.384Z,489.75
2022-09-18T07:16:21.699Z,488.23
2022-09-18T07:18:49.464Z,483.95
2022-09-18T07:21:19.769Z,496.60
2022-09-18T07:23:47.053Z,498.08
2022-09-18T07:26:14.531Z,496.70
2022-09-18T07:28:42.164Z,496.48
2022-09-18T07:31:34.777Z,497.25
2022-09-18T07:36:35.881Z,497.60
2022-09-18T07:39:04.102Z,576.27
2022-09-18T07:41:41.244Z,547.75
2022-09-18T07:44:08.729Z,537.83
2022-09-18T07:46:36.108Z,499.48
2022-09-18T07:49:05.465Z,498.27
2022-09-18T07:51:32.743Z,489.42
2022-09-18T07:54:00.417Z,493.23
2022-09-18T07:56:54.084Z,494.30
2022-09-18T07:59:24.587Z,491.92
2022-09-18T08:01:58.720Z,494.95
2022-09-18T08:04:28.355Z,499.65
2022-09-18T08:07:17.262Z,506.00
2022-09-18T08:10:17.003Z,509.48
2022-09-18T08:12:54.529Z,514.78
2022-09-18T08:15:24.669Z,518.65
2022-09-18T08:18:12.272Z,519.20
2022-09-18T08:20:57.804Z,600.60
2022-09-18T08:26:04.773Z,535.15
2022-09-18T08:28:32.989Z,523.90
2022-09-18T08:31:02.319Z,555.88
2022-09-18T08:33:29.739Z,576.85
2022-09-18T08:35:57.408Z,570.63
2022-09-18T08:38:36.522Z,573.75
2022-09-18T08:41:38.445Z,572.75
2022-09-18T08:44:24.009Z,585.28
2022-09-18T08:47:02.323Z,591.03
2022-09-18T08:49:39.468Z,579.33
2022-09-18T08:52:15.114Z,538.45
2022-09-18T08:55:01.184Z,522.75
2022-09-18T08:57:59.327Z,514.22
2022-09-18T09:00:42.015Z,499.95
2022-09-18T09:03:40.800Z,497.88
2022-09-18T09:06:23.837Z,468.55
2022-09-18T09:09:00.847Z,515.67
2022-09-18T09:11:29.981Z,555.05
2022-09-18T09:14:11.045Z,506.77
2022-09-18T09:17:07.246Z,515.38
2022-09-18T09:19:37.439Z,521.85
2022-09-18T09:22:19.154Z,523.67
2022-09-18T09:25:07.752Z,537.78
2022-09-18T09:28:16.341Z,516.13
2022-09-18T09:31:07.866Z,494.58
2022-09-18T09:33:57.983Z,499.02
2022-09-18T09:36:49.999Z,482.75
2022-09-18T09:39:39.691Z,486.67
2022-09-18T09:42:23.189Z,465.42
2022-09-18T09:45:15.526Z,491.70
2022-09-18T09:48:04.811Z,491.88
2022-09-18T09:50:51.553Z,487.05
2022-09-18T09:53:20.126Z,489.15
2022-09-18T09:56:08.959Z,497.23
2022-09-18T09:58:54.591Z,493.05
2022-09-18T10:01:59.663Z,494.83
2022-09-18T10:07:51.993Z,482.08
2022-09-18T10:10:31.359Z,480.05
2022-09-18T10:13:06.315Z,470.50
2022-09-18T10:15:41.795Z,470.58
2022-09-18T10:18:23.822Z,469.63
2022-09-18T10:20:57.857Z,467.35
2022-09-18T10:23:34.210Z,474.52
2022-09-18T10:26:04.039Z,468.35
2022-09-18T10:28:33.430Z,472.40
2022-09-18T10:31:05.520Z,471.05
2022-09-18T10:33:47.899Z,475.23
2022-09-18T10:36:44.125Z,479.20
2022-09-18T10:39:31.594Z,470.15
2022-09-18T10:42:07.208Z,473.80
2022-09-18T10:44:40.896Z,467.48
2022-09-18T10:47:18.632Z,464.23
2022-09-18T10:50:12.151Z,469.40
2022-09-18T10:52:49.772Z,471.65
2022-09-18T10:55:51.512Z,474.10
2022-09-18T10:58:29.680Z,459.80
2022-09-18T11:01:05.773Z,455.35
2022-09-18T11:03:41.685Z,453.27
2022-09-18T11:06:26.304Z,462.02
2022-09-18T11:08:59.693Z,457.57
2022-09-18T11:11:31.211Z,470.98
2022-09-18T11:14:16.116Z,374.08
2022-09-18T11:17:01.021Z,511.27
2022-09-18T11:19:40.628Z,561.40
2022-09-18T11:22:44.457Z,601.20
2022-09-18T11:25:32.477Z,617.50
2022-09-18T11:28:31.463Z,617.35
2022-09-18T11:31:06.840Z,597.70
2022-09-18T11:33:44.023Z,607.17
2022-09-18T11:36:14.750Z,601.15
2022-09-18T11:38:45.298Z,603.78
2022-09-18T11:41:21.921Z,615.13
2022-09-18T11:44:11.322Z,620.13
2022-09-18T11:46:41.579Z,602.25
2022-09-18T11:49:22.113Z,603.78
2022-09-18T11:52:14.274Z,604.25
2022-09-18T11:54:57.227Z,607.90
2022-09-18T11:57:45.508Z,610.40
2022-09-18T12:00:22.590Z,607.55
2022-09-18T12:03:06.911Z,604.53
2022-09-18T12:06:04.468Z,613.25
2022-09-18T12:11:47.819Z,628.88
2022-09-18T12:14:25.803Z,628.97
2022-09-18T12:17:31.821Z,618.08
2022-09-18T12:20:09.517Z,608.63
2022-09-18T12:22:57.461Z,595.78
2022-09-18T12:25:43.443Z,588.28
2022-09-18T12:28:35.351Z,564.22
2022-09-18T12:31:19.685Z,579.45
2022-09-18T12:34:31.043Z,547.03
2022-09-18T12:37:05.665Z,583.67
2022-09-18T12:40:14.259Z,596.42
2022-09-18T12:43:11.165Z,598.53
2022-09-18T12:45:38.580Z,608.10
2022-09-18T12:48:36.441Z,615.17
2022-09-18T12:51:51.281Z,619.35
2022-09-18T12:54:35.978Z,628.47
2022-09-18T12:57:10.260Z,634.65
2022-09-18T12:59:52.553Z,636.03
2022-09-18T13:02:24.824Z,638.78
2022-09-18T13:05:01.817Z,640.10
2022-09-18T13:07:35.416Z,641.13
2022-09-18T13:10:26.349Z,643.70
2022-09-18T13:13:23.059Z,625.58
2022-09-18T13:15:55.270Z,616.90
2022-09-18T13:18:29.081Z,611.22
2022-09-18T13:20:58.677Z,602.72
2022-09-18T13:23:35.246Z,608.13
2022-09-18T13:26:05.771Z,609.55
2022-09-18T13:28:33.675Z,584.25
2022-09-18T13:31:34.992Z,549.00
2022-09-18T13:34:06.852Z,599.90
2022-09-18T13:36:36.855Z,612.00
2022-09-18T13:39:17.101Z,611.80
2022-09-18T13:41:49.167Z,612.88
2022-09-18T13:44:19.486Z,610.97
2022-09-18T13:46:48.088Z,596.88
2022-09-18T13:49:35.838Z,607.15
2022-09-18T13:52:36.234Z,595.80
2022-09-18T13:55:16.529Z,544.97
2022-09-18T13:57:44.986Z,508.60
2022-09-18T14:00:21.237Z,419.15
2022-09-18T14:03:07.836Z,420.25
2022-09-18T14:05:40.573Z,411.08
2022-09-18T14:08:23.349Z,410.20
2022-09-18T14:11:13.716Z,411.83
2022-09-18T14:13:51.511Z,409.20
2022-09-18T14:16:22.542Z,261.98
2022-09-18T14:18:49.895Z,410.88
2022-09-18T14:21:40.256Z,406.65
2022-09-18T14:24:44.988Z,460.80
2022-09-18T14:27:43.316Z,478.50
2022-09-18T14:30:21.214Z,463.50
2022-09-18T14:33:19.029Z,432.92
2022-09-18T14:36:02.907Z,558.28
2022-09-18T14:41:06.861Z,506.98
2022-09-18T14:43:34.387Z,492.90
2022-09-18T14:46:01.964Z,423.80
2022-09-18T14:48:38.192Z,449.80
2022-09-18T14:51:15.759Z,455.40
2022-09-18T14:53:45.895Z,421.10
2022-09-18T14:56:20.754Z,406.88
2022-09-18T14:58:50.738Z,454.52
2022-09-18T15:01:23.853Z,452.73
2022-09-18T15:03:53.584Z,455.15
2022-09-18T15:06:48.364Z,453.73
2022-09-18T15:09:23.737Z,455.73
2022-09-18T15:12:06.738Z,454.92
2022-09-18T15:14:45.430Z,443.40
2022-09-18T15:17:22.089Z,455.08
2022-09-18T15:20:10.073Z,458.92
2022-09-18T15:22:37.519Z,450.33
2022-09-18T15:25:11.521Z,430.13
2022-09-18T15:27:40.605Z,442.88
2022-09-18T15:30:16.775Z,474.00
2022-09-18T15:32:50.110Z,469.33
2022-09-18T15:35:34.653Z,484.33
2022-09-18T15:38:06.166Z,466.80
2022-09-18T15:40:40.202Z,473.67
2022-09-18T15:43:30.567Z,437.73
2022-09-18T15:46:09.376Z,443.55
2022-09-18T15:48:40.994Z,442.67
2022-09-18T15:51:17.306Z,429.63
2022-09-18T15:54:14.819Z,440.70
2022-09-18T15:56:56.772Z,444.70
2022-09-18T15:59:31.834Z,428.33
2022-09-18T16:02:00.696Z,425.52
2022-09-18T16:04:33.165Z,417.75
2022-09-18T16:07:17.354Z,289.17
2022-09-18T16:09:49.539Z,408.20
2022-09-18T16:12:22.831Z,401.92
2022-09-18T16:15:00.571Z,252.88
2022-09-18T16:17:36.893Z,405.73
2022-09-18T16:20:28.523Z,413.05
2022-09-18T16:23:21.322Z,423.58
2022-09-18T16:26:21.621Z,401.65
2022-09-18T16:29:01.634Z,418.98
2022-09-18T16:31:32.305Z,411.55
2022-09-18T16:34:02.471Z,417.70
2022-09-18T16:36:34.304Z,416.92
2022-09-18T16:39:08.293Z,457.73
2022-09-18T16:41:36.481Z,452.27
2022-09-18T16:44:05.784Z,450.02
2022-09-18T16:46:42.428Z,444.45
2022-09-18T16:49:16.243Z,469.55
2022-09-18T16:51:43.747Z,463.63
2022-09-18T16:54:11.191Z,454.58
2022-09-18T16:56:45.832Z,456.50
2022-09-18T16:59:13.880Z,439.40
2022-09-18T17:02:02.497Z,444.80
2022-09-18T17:04:29.561Z,444.42
2022-09-18T17:06:57.112Z,462.42
2022-09-18T17:09:25.056Z,445.90
2022-09-18T17:11:53.926Z,457.90
2022-09-18T17:14:21.991Z,439.92
2022-09-18T17:16:49.424Z,460.52
2022-09-18T17:19:17.046Z,457.60
2022-09-18T17:21:44.409Z,441.80
2022-09-18T17:24:12.166Z,438.92
2022-09-18T17:26:41.238Z,436.30
2022-09-18T17:29:11.465Z,431.33
2022-09-18T17:31:38.967Z,446.73
2022-09-18T17:34:06.424Z,455.20
2022-09-18T17:36:38.064Z,432.52
2022-09-18T17:39:06.711Z,427.70
2022-09-18T17:41:34.229Z,416.23
2022-09-18T17:44:01.831Z,442.45
2022-09-18T17:46:29.084Z,427.40
2022-09-18T17:48:59.751Z,426.92
2022-09-18T17:51:29.096Z,436.13
2022-09-18T17:54:04.967Z,420.98
2022-09-18T17:56:33.911Z,441.50
2022-09-18T17:59:05.634Z,434.63
2022-09-18T18:01:37.672Z,422.25
2022-09-18T18:04:06.520Z,429.92
2022-09-18T18:06:34.727Z,419.92
2022-09-18T18:09:02.162Z,429.27
2022-09-18T18:11:29.811Z,430.75
2022-09-18T18:13:57.111Z,425.02
2022-09-18T18:16:30.765Z,429.83
2022-09-18T18:19:04.807Z,424.73
2022-09-18T18:21:34.808Z,420.70
2022-09-18T18:24:06.971Z,420.75
2022-09-18T18:26:34.977Z,422.17
2022-09-18T18:29:05.920Z,422.90
2022-09-18T18:31:33.672Z,416.52
2022-09-18T18:34:01.058Z,399.73
2022-09-18T18:36:30.270Z,427.60
2022-09-18T18:39:00.063Z,428.45
2022-09-18T18:41:29.954Z,414.50
2022-09-18T18:44:00.101Z,289.85
2022-09-18T18:46:29.511Z,426.95
2022-09-18T18:49:03.976Z,410.73
2022-09-18T18:51:35.467Z,419.23
2022-09-18T18:54:04.299Z,414.23
2022-09-18T18:56:34.251Z,412.05
2022-09-18T18:59:03.779Z,401.77
2022-09-18T19:01:32.226Z,404.95
2022-09-18T19:04:08.439Z,381.13
2022-09-18T19:06:39.035Z,357.08
2022-09-18T19:09:20.268Z,347.98
2022-09-18T19:11:50.153Z,252.52
2022-09-18T19:14:21.429Z,365.92
2022-09-18T19:16:51.380Z,349.13
2022-09-18T19:19:20.528Z,376.58
2022-09-18T19:21:48.039Z,368.63
2022-09-18T19:24:18.702Z,250.80
2022-09-18T19:26:47.167Z,377.08
2022-09-18T19:29:17.463Z,374.50
2022-09-18T19:31:46.691Z,367.38
2022-09-18T19:34:16.529Z,342.65
2022-09-18T19:36:47.297Z,335.77
2022-09-18T19:39:15.334Z,11.27
2022-09-18T19:41:51.498Z,139.38
2022-09-18T19:44:31.493Z,10.35
2022-09-18T19:47:02.451Z,9.98
2022-09-18T19:49:33.772Z,8.65
2022-09-18T19:52:02.272Z,6.82
2022-09-18T19:54:30.042Z,9.38
2022-09-18T19:56:59.160Z,7.97
2022-09-18T19:59:26.512Z,9.73
2022-09-18T20:01:54.853Z,9.60
2022-09-18T20:04:22.167Z,8.70
2022-09-18T20:06:49.852Z,6.22
2022-09-18T20:09:17.176Z,5.53
2022-09-18T20:11:48.127Z,6.05
2022-09-18T20:14:16.316Z,5.45
2022-09-18T20:16:43.646Z,7.05
2022-09-18T20:19:11.158Z,6.65
2022-09-18T20:21:38.468Z,5.82
2022-09-18T20:24:06.269Z,4.90
2022-09-18T20:26:33.706Z,5.38
2022-09-18T20:29:01.339Z,5.68
2022-09-18T20:31:29.046Z,5.93
2022-09-18T20:33:57.984Z,4.97
2022-09-18T20:36:26.447Z,5.03
2022-09-18T20:38:58.164Z,5.55
2022-09-18T20:41:29.817Z,5.15
2022-09-18T20:44:00.310Z,4.53
2022-09-18T20:46:27.753Z,5.45
2022-09-18T20:48:55.274Z,285.48
2022-09-18T20:51:25.933Z,5.53
2022-09-18T20:53:57.605Z,6.47
2022-09-18T20:56:27.590Z,5.40
2022-09-18T20:58:55.291Z,6.38
2022-09-18T21:01:25.174Z,5.40
2022-09-18T21:03:58.144Z,6.78
2022-09-18T21:06:28.978Z,5.55
2022-09-18T21:08:56.671Z,5.43
2022-09-18T21:11:25.691Z,11.73
2022-09-18T21:13:54.961Z,5.93
2022-09-18T21:16:23.501Z,5.65
2022-09-18T21:18:53.643Z,5.50
2022-09-18T21:21:21.505Z,5.72
2022-09-18T21:23:56.641Z,6.43
2022-09-18T21:26:27.685Z,5.68
2022-09-18T21:28:58.369Z,6.15
2022-09-18T21:31:26.632Z,7.50
2022-09-18T21:33:54.182Z,6.50
2022-09-18T21:36:23.529Z,5.60
2022-09-18T21:38:51.665Z,7.63
2022-09-18T21:41:21.388Z,5.70
2022-09-18T21:43:50.713Z,5.60
2022-09-18T21:46:20.045Z,5.22
2022-09-18T21:48:49.183Z,4.10
2022-09-18T21:51:17.819Z,4.70
2022-09-18T21:53:45.635Z,5.10
2022-09-18T21:56:16.083Z,4.80
2022-09-18T21:58:47.534Z,5.50
2022-09-18T22:01:19.050Z,5.13
2022-09-18T22:03:56.193Z,5.38
2022-09-18T22:06:26.254Z,4.85
2022-09-18T22:08:56.502Z,5.03
2022-09-18T22:11:29.218Z,5.03
2022-09-18T22:13:59.802Z,4.30
2022-09-18T22:16:31.339Z,4.68
2022-09-18T22:18:59.555Z,5.10
2022-09-18T22:21:29.283Z,4.45
2022-09-18T22:23:59.384Z,4.57
2022-09-18T22:26:28.640Z,4.22
2022-09-18T22:28:57.136Z,4.78
2022-09-18T22:31:25.654Z,4.82
2022-09-18T22:33:57.803Z,4.85
2022-09-18T22:36:26.389Z,5.10
2022-09-18T22:38:54.493Z,4.70
2022-09-18T22:41:22.532Z,4.70
2022-09-18T22:43:55.281Z,5.45
2022-09-18T22:46:24.980Z,5.22
2022-09-18T22:48:52.733Z,5.03
2022-09-18T22:51:24.452Z,4.75
2022-09-18T22:53:55.065Z,5.13
2022-09-18T22:56:24.678Z,5.25
2022-09-18T22:58:52.890Z,5.13
2022-09-18T23:01:27.988Z,5.30
2022-09-18T23:03:57.059Z,5.05
2022-09-18T23:06:26.317Z,5.00
2022-09-18T23:08:56.340Z,5.22
2022-09-18T23:11:26.726Z,5.25
2022-09-18T23:14:00.095Z,5.68
2022-09-18T23:19:10.186Z,5.40
2022-09-18T23:21:39.354Z,6.22
2022-09-18T23:24:09.259Z,7.38
2022-09-18T23:26:42.032Z,8.55
2022-09-18T23:29:13.071Z,6.80
2022-09-18T23:31:42.636Z,5.65
2022-09-18T23:34:15.155Z,5.38
2022-09-18T23:36:44.924Z,5.33
2022-09-18T23:39:15.666Z,4.88
2022-09-18T23:41:43.451Z,5.97
2022-09-18T23:44:13.517Z,6.57
2022-09-18T23:46:42.015Z,6.63
2022-09-18T23:49:12.362Z,5.07
2022-09-18T23:51:42.485Z,4.70
2022-09-18T23:54:16.926Z,6.03
2022-09-18T23:56:45.266Z,4.85
2022-09-18T23:59:13.597Z,6.70
